createdAt,value
2023-02-11T00:02:41.459Z,468
2023-02-11T02:02:34.384Z,464
2023-02-11T02:32:47.712Z,464
2023-02-11T03:32:41.781Z,465
2023-02-11T04:02:55.452Z,466
2023-02-11T04:32:41.385Z,468
2023-02-11T05:02:42.622Z,467
2023-02-11T05:32:52.356Z,465
2023-02-11T06:32:44.289Z,467
2023-02-11T07:02:37.189Z,466
2023-02-11T07:32:52.060Z,465
2023-02-11T08:02:38.797Z,463
2023-02-11T08:32:38.506Z,464
2023-02-11T09:02:35.997Z,464
2023-02-11T09:32:37.680Z,467
2023-02-11T10:32:29.345Z,462
2023-02-11T11:02:38.886Z,461
2023-02-11T11:32:30.932Z,458
2023-02-11T12:02:32.079Z,461
2023-02-11T12:32:30.105Z,460
2023-02-11T13:02:33.511Z,461
2023-02-11T13:32:27.547Z,462
2023-02-11T14:02:28.813Z,461
2023-02-11T14:32:36.054Z,460
2023-02-11T15:02:26.277Z,460
2023-02-11T15:32:36.440Z,462
2023-02-11T16:02:36.148Z,461
2023-02-11T16:32:29.458Z,459
2023-02-11T17:02:29.179Z,465
2023-02-11T17:32:30.821Z,463
2023-02-11T18:32:30.320Z,464
2023-02-11T19:02:27.727Z,463
2023-02-11T19:32:25.654Z,467
2023-02-11T20:02:29.630Z,465
2023-02-11T20:32:25.125Z,465
2023-02-11T21:32:30.644Z,462
2023-02-11T22:02:27.900Z,462
2023-02-11T22:32:23.639Z,460
2023-02-11T23:02:30.483Z,464
2023-02-11T23:32:29.229Z,463
